Time;durP1;ratioP1;P1;durP2;ratioP2;P2;SDS_P1;SDS_P2;PMS_P1;PMS_P2;Temp;Humidity;BMP_temperature;BMP_pressure;BME280_temperature;BME280_humidity;BME280_pressure;Samples;Min_cycle;Max_cycle;Signal;HPM_P1;HPM_P2
2022/07/18 00:02:09;;;;;;;4.63;2.20;;;;;;;12.78;100.00;101674.88;5042739;28;20215;-75
2022/07/18 00:04:35;;;;;;;5.20;1.90;;;;;;;12.65;100.00;101677.72;5040800;28;20212;-75
2022/07/18 00:07:03;;;;;;;4.00;1.83;;;;;;;12.66;100.00;101674.22;5049500;22;20223;-75
2022/07/18 00:09:29;;;;;;;3.97;2.20;;;;;;;12.55;100.00;101672.69;5036989;28;20219;-75
2022/07/18 00:11:56;;;;;;;2.57;1.90;;;;;;;12.49;100.00;101668.41;5038326;28;21110;-76
2022/07/18 00:14:23;;;;;;;3.90;2.10;;;;;;;12.53;100.00;101671.84;5039602;28;20620;-75
2022/07/18 00:16:50;;;;;;;4.50;2.20;;;;;;;12.52;100.00;101670.97;5041881;28;20595;-75
2022/07/18 00:19:17;;;;;;;3.73;1.77;;;;;;;12.47;100.00;101671.06;5035864;28;20195;-75
2022/07/18 00:21:43;;;;;;;3.70;1.77;;;;;;;12.44;100.00;101667.63;5043134;28;20231;-75
2022/07/18 00:24:11;;;;;;;3.53;1.90;;;;;;;12.39;100.00;101670.31;5046554;28;20582;-75
2022/07/18 00:26:38;;;;;;;3.67;2.10;;;;;;;12.37;100.00;101666.88;5045657;28;20219;-75
2022/07/18 00:29:04;;;;;;;5.07;1.70;;;;;;;12.38;100.00;101670.34;5019788;28;20655;-76
2022/07/18 00:31:32;;;;;;;1.83;1.60;;;;;;;12.33;100.00;101680.91;5021425;28;20210;-76
2022/07/18 00:33:58;;;;;;;2.60;1.63;;;;;;;12.36;100.00;101677.34;5038177;28;20193;-76
2022/07/18 00:36:26;;;;;;;6.90;1.60;;;;;;;12.47;100.00;101680.63;5042336;28;20228;-76
2022/07/18 00:38:53;;;;;;;7.63;1.70;;;;;;;12.37;100.00;101684.31;5046846;28;20246;-75
2022/07/18 00:41:21;;;;;;;3.73;1.73;;;;;;;12.35;100.00;101686.06;5042017;28;20208;-76
2022/07/18 00:43:49;;;;;;;3.13;1.57;;;;;;;12.26;100.00;101692.31;5044009;28;20564;-76
2022/07/18 00:46:15;;;;;;;1.87;1.47;;;;;;;12.14;100.00;101693.41;5042340;28;20233;-76
2022/07/18 00:48:43;;;;;;;1.67;1.40;;;;;;;12.17;100.00;101693.34;5048013;28;20402;-76
2022/07/18 00:51:10;;;;;;;2.70;1.50;;;;;;;12.12;100.00;101696.03;5040690;28;20210;-76
2022/07/18 00:53:36;;;;;;;6.07;1.57;;;;;;;12.13;100.00;101704.72;5041701;28;21232;-75
2022/07/18 00:56:04;;;;;;;3.17;1.60;;;;;;;12.10;100.00;101703.03;5042015;28;20215;-75
2022/07/18 00:58:33;;;;;;;1.43;1.17;;;;;;;12.13;100.00;101705.59;5040451;28;20203;-75
2022/07/18 01:03:43;;;;;;;1.60;1.30;;;;;;;12.00;100.00;101717.13;5044997;28;20199;-75
2022/07/18 01:06:10;;;;;;;3.30;1.80;;;;;;;11.86;100.00;101706.84;5042079;28;20230;-75
2022/07/18 01:08:37;;;;;;;2.60;1.37;;;;;;;11.76;100.00;101705.22;5042313;28;20215;-75
2022/07/18 01:11:04;;;;;;;4.80;1.47;;;;;;;11.83;100.00;101706.03;5039143;28;20763;-75
2022/07/18 01:13:32;;;;;;;1.47;1.30;;;;;;;11.74;100.00;101693.94;5037036;28;20688;-75
2022/07/18 01:15:58;;;;;;;3.20;1.17;;;;;;;11.69;100.00;101696.59;5045065;28;20223;-75
2022/07/18 01:18:24;;;;;;;1.60;1.50;;;;;;;11.77;100.00;101696.53;5048950;28;20700;-75
2022/07/18 01:20:52;;;;;;;4.43;1.83;;;;;;;11.93;100.00;101698.06;5043797;28;20192;-75
2022/07/18 01:23:19;;;;;;;2.60;1.67;;;;;;;12.02;100.00;101702.28;5043119;28;20207;-76
2022/07/18 01:25:45;;;;;;;4.87;1.70;;;;;;;11.95;100.00;101707.63;5042871;28;20204;-75
2022/07/18 01:28:11;;;;;;;2.30;1.50;;;;;;;11.96;100.00;101706.72;5037972;28;20204;-75
2022/07/18 01:30:38;;;;;;;2.83;1.40;;;;;;;12.13;100.00;101705.59;5025946;28;20226;-75
2022/07/18 01:33:04;;;;;;;2.03;1.40;;;;;;;12.18;100.00;101697.69;5044144;28;20621;-75
2022/07/18 01:35:32;;;;;;;2.23;1.47;;;;;;;12.15;100.00;101699.47;5039157;28;20752;-75
2022/07/18 01:38:03;;;;;;;3.07;1.67;;;;;;;12.06;100.00;101703.94;5044268;28;20226;-75
2022/07/18 01:40:29;;;;;;;2.13;1.47;;;;;;;12.00;100.00;101700.59;5043105;28;20203;-75
2022/07/18 01:42:56;;;;;;;3.87;1.47;;;;;;;11.93;100.00;101707.66;5040193;28;20576;-76
2022/07/18 01:45:22;;;;;;;2.00;1.40;;;;;;;11.97;100.00;101701.47;5038949;28;20199;-75
2022/07/18 01:47:49;;;;;;;2.50;1.60;;;;;;;12.06;100.00;101703.94;5041574;28;20216;-76
2022/07/18 01:50:16;;;;;;;2.40;1.60;;;;;;;12.19;100.00;101703.75;5043203;28;20260;-76
2022/07/18 01:52:42;;;;;;;1.63;1.37;;;;;;;12.25;100.00;101720.22;5040236;28;20210;-75
2022/07/18 01:55:11;;;;;;;1.97;1.30;;;;;;;12.30;100.00;101713.16;5043128;28;20219;-75
2022/07/18 01:57:37;;;;;;;2.20;1.33;;;;;;;12.38;100.00;101710.41;5040470;28;20222;-75
2022/07/18 02:00:06;;;;;;;1.90;1.33;;;;;;;12.38;100.00;101712.19;5041586;28;20215;-75
2022/07/18 02:02:33;;;;;;;3.43;1.20;;;;;;;12.29;100.00;101716.69;5041385;28;20199;-76
2022/07/18 02:05:02;;;;;;;6.33;1.70;;;;;;;12.27;100.00;101723.69;5042560;28;20207;-75
2022/07/18 02:07:32;;;;;;;1.53;1.20;;;;;;;12.29;100.00;101721.03;5038990;28;20327;-75
2022/07/18 02:10:00;;;;;;;2.10;1.60;;;;;;;12.31;100.00;101729.72;5043529;28;20539;-76
2022/07/18 02:12:27;;;;;;;5.47;1.80;;;;;;;12.29;100.00;101726.25;5041527;28;20207;-76
2022/07/18 02:14:54;;;;;;;3.03;1.57;;;;;;;12.29;100.00;101716.69;5043962;28;20204;-75
2022/07/18 02:17:21;;;;;;;3.03;1.30;;;;;;;12.36;100.00;101719.19;5044216;28;20220;-76
2022/07/18 02:19:47;;;;;;;4.00;1.23;;;;;;;12.38;100.00;101723.50;5040534;28;20204;-75
2022/07/18 02:22:14;;;;;;;1.43;1.33;;;;;;;12.34;100.00;101724.44;5038376;28;20199;-76
2022/07/18 02:24:40;;;;;;;3.80;1.67;;;;;;;12.25;100.00;101717.59;5042695;28;20203;-75
2022/07/18 02:27:07;;;;;;;1.43;1.33;;;;;;;12.23;100.00;101716.78;5042068;28;20224;-75
2022/07/18 02:29:35;;;;;;;2.30;1.67;;;;;;;12.22;100.00;101717.66;5038224;28;20217;-75
2022/07/18 02:32:02;;;;;;;2.93;1.50;;;;;;;12.34;100.00;101713.13;5040002;28;20205;-75
2022/07/18 02:34:28;;;;;;;1.57;1.43;;;;;;;12.28;100.00;101714.09;5039311;28;20474;-75
2022/07/18 02:36:54;;;;;;;3.57;1.47;;;;;;;12.25;100.00;101719.38;5041518;28;20221;-76
2022/07/18 02:39:21;;;;;;;1.67;1.47;;;;;;;12.22;100.00;101717.66;5042586;28;20203;-75
2022/07/18 02:41:48;;;;;;;1.77;1.10;;;;;;;12.13;100.00;101723.88;5040778;28;20540;-75
2022/07/18 02:44:15;;;;;;;1.80;1.33;;;;;;;12.06;100.00;101724.88;5046475;28;20200;-76
2022/07/18 02:46:43;;;;;;;2.23;1.40;;;;;;;12.08;100.00;101719.63;5038341;28;20216;-75
2022/07/18 02:49:26;;;;;;;1.83;1.50;;;;;;;12.04;100.00;101713.56;5039669;28;20216;-75
2022/07/18 02:51:53;;;;;;;1.83;1.10;;;;;;;11.94;100.00;101709.38;5043499;28;22557;-76
2022/07/18 02:54:19;;;;;;;1.97;1.50;;;;;;;11.88;100.00;101704.22;5040107;28;20199;-75
2022/07/18 02:56:45;;;;;;;1.77;1.27;;;;;;;11.81;100.00;101698.19;5042140;28;20249;-76
2022/07/18 02:59:12;;;;;;;1.97;1.60;;;;;;;11.76;100.00;101697.41;5046620;28;20214;-75
2022/07/18 03:01:38;;;;;;;2.33;1.63;;;;;;;11.70;100.00;101689.66;5040678;28;20195;-75
2022/07/18 03:04:06;;;;;;;2.80;1.30;;;;;;;11.58;100.00;101689.81;5041256;28;20202;-75
2022/07/18 03:06:32;;;;;;;2.30;1.30;;;;;;;11.56;100.00;101693.31;5041937;28;20242;-76
2022/07/18 03:08:59;;;;;;;1.37;1.27;;;;;;;11.51;100.00;101695.13;5038612;28;20253;-75
2022/07/18 03:11:25;;;;;;;4.30;1.50;;;;;;;11.48;100.00;101692.53;5044375;28;20199;-75
2022/07/18 03:13:51;;;;;;;1.87;1.60;;;;;;;11.39;100.00;101705.72;5039969;28;20250;-75
2022/07/18 03:16:17;;;;;;;4.03;1.43;;;;;;;11.32;100.00;101701.44;5041736;28;20583;-75
2022/07/18 03:18:44;;;;;;;2.53;1.53;;;;;;;11.42;100.00;101707.44;5043753;28;20211;-75
2022/07/18 03:21:11;;;;;;;2.53;1.40;;;;;;;11.34;100.00;101707.50;5041389;28;20206;-76
2022/07/18 03:23:38;;;;;;;2.50;1.60;;;;;;;11.49;100.00;101711.69;5041348;28;20191;-75
2022/07/18 03:26:04;;;;;;;1.37;1.23;;;;;;;11.39;100.00;101710.94;5040538;28;20220;-76
2022/07/18 03:28:31;;;;;;;2.17;1.50;;;;;;;11.41;100.00;101700.47;5038898;28;20206;-75
2022/07/18 03:30:58;;;;;;;3.20;1.80;;;;;;;11.43;100.00;101706.53;5039816;28;20213;-76
2022/07/18 03:33:25;;;;;;;2.70;1.47;;;;;;;11.58;100.00;101701.13;5043039;28;20214;-75
2022/07/18 03:35:51;;;;;;;1.60;1.50;;;;;;;11.55;100.00;101701.16;5040218;28;20207;-75
2022/07/18 03:38:19;;;;;;;4.07;1.50;;;;;;;11.56;100.00;101702.91;5038969;28;20200;-75
2022/07/18 03:40:45;;;;;;;2.30;1.60;;;;;;;11.55;100.00;101702.00;5042141;28;20582;-75
2022/07/18 03:43:12;;;;;;;4.37;1.47;;;;;;;11.52;100.00;101704.69;5041126;28;20579;-76
2022/07/18 03:45:38;;;;;;;2.40;1.77;;;;;;;11.73;100.00;101684.38;5037455;28;20688;-75
2022/07/18 03:48:05;;;;;;;2.80;1.70;;;;;;;11.62;100.00;101694.13;5041400;28;20207;-75
2022/07/18 03:50:31;;;;;;;1.83;1.50;;;;;;;11.59;100.00;101694.16;5038818;28;20230;-75
2022/07/18 03:52:58;;;;;;;2.03;1.50;;;;;;;11.58;100.00;101682.84;5035622;28;20209;-75
2022/07/18 03:55:25;;;;;;;1.93;1.57;;;;;;;11.49;100.00;101694.28;5040480;28;20191;-75
2022/07/18 03:57:52;;;;;;;4.90;1.47;;;;;;;11.52;100.00;101691.63;5037259;28;20603;-75
2022/07/18 04:00:18;;;;;;;4.63;1.30;;;;;;;11.60;100.00;101696.75;5038024;28;20537;-75
2022/07/18 04:02:47;;;;;;;4.73;1.77;;;;;;;11.63;100.00;101691.50;5034499;28;20203;-75
2022/07/18 04:05:14;;;;;;;1.97;1.47;;;;;;;11.52;100.00;101696.84;5034934;28;20666;-76
2022/07/18 04:07:41;;;;;;;1.60;1.50;;;;;;;11.83;100.00;101699.03;5045030;28;20227;-75
2022/07/18 04:10:09;;;;;;;3.10;1.50;;;;;;;11.96;100.00;101704.13;5040154;28;20219;-75
2022/07/18 04:12:45;;;;;;;1.93;1.53;;;;;;;12.18;100.00;101702.91;5041060;28;20199;-75
2022/07/18 04:15:11;;;;;;;2.03;1.73;;;;;;;12.23;100.00;101708.06;5041178;28;20210;-75
2022/07/18 04:17:37;;;;;;;2.57;1.50;;;;;;;12.34;100.00;101710.50;5041226;28;20235;-75
2022/07/18 04:20:04;;;;;;;1.53;1.40;;;;;;;12.50;100.00;101711.97;5039060;28;20195;-75
2022/07/18 04:22:31;;;;;;;2.00;1.27;;;;;;;12.63;100.00;101710.03;5041912;28;20191;-75
2022/07/18 04:24:57;;;;;;;1.93;1.33;;;;;;;12.77;100.00;101708.03;5044539;28;20203;-75
2022/07/18 04:27:23;;;;;;;1.70;1.20;;;;;;;12.85;100.00;101713.13;5039755;28;20597;-76
2022/07/18 04:29:51;;;;;;;3.03;1.73;;;;;;;12.94;100.00;101712.94;5047917;28;20222;-75
2022/07/18 04:32:17;;;;;;;4.40;1.50;;;;;;;13.09;100.00;101714.41;5043877;28;20595;-75
2022/07/18 04:34:44;;;;;;;1.60;1.50;;;;;;;13.29;100.00;101714.03;5045079;28;20203;-76
2022/07/18 04:37:12;;;;;;;2.43;1.63;;;;;;;13.43;100.00;101717.25;5040112;28;20223;-75
2022/07/18 04:39:38;;;;;;;3.73;1.73;;;;;;;13.60;100.00;101723.91;5041812;28;20224;-75
2022/07/18 04:42:04;;;;;;;3.33;1.47;;;;;;;13.59;99.91;101722.16;5042686;28;20211;-76
2022/07/18 04:44:31;;;;;;;2.57;1.63;;;;;;;13.62;98.07;101717.72;5043061;28;20219;-75
2022/07/18 04:46:58;;;;;;;4.67;1.43;;;;;;;13.69;96.47;101720.22;5045081;28;20223;-75
2022/07/18 04:49:25;;;;;;;4.40;1.60;;;;;;;13.71;93.58;101716.66;5042814;28;20200;-74
2022/07/18 04:51:51;;;;;;;3.57;1.57;;;;;;;13.73;90.76;101727.97;5039186;28;20243;-75
2022/07/18 04:54:17;;;;;;;3.23;1.80;;;;;;;13.77;90.67;101721.78;5039489;28;20696;-74
2022/07/18 04:56:44;;;;;;;2.30;1.30;;;;;;;13.86;90.30;101712.84;5034683;28;20233;-75
2022/07/18 04:59:10;;;;;;;1.30;1.10;;;;;;;13.97;90.06;101712.63;5041720;28;20209;-74
2022/07/18 05:01:36;;;;;;;2.83;1.60;;;;;;;14.13;91.22;101713.97;5046302;28;20598;-74
2022/07/18 05:04:04;;;;;;;1.63;1.30;;;;;;;14.34;92.78;101703.88;5043552;28;20602;-74
2022/07/18 05:06:31;;;;;;;2.33;1.33;;;;;;;14.43;87.11;101705.41;5035540;28;20404;-74
2022/07/18 05:08:57;;;;;;;1.97;1.37;;;;;;;14.54;87.14;101709.44;5036464;28;20578;-74
2022/07/18 05:11:23;;;;;;;2.63;1.40;;;;;;;14.71;88.55;101723.97;5040426;28;20310;-74
2022/07/18 05:13:50;;;;;;;2.13;1.30;;;;;;;14.81;87.96;101716.69;5044855;28;20301;-74
2022/07/18 05:16:16;;;;;;;3.10;1.47;;;;;;;14.99;90.30;101716.22;5042780;28;20231;-74
2022/07/18 05:18:43;;;;;;;1.17;1.00;;;;;;;15.13;87.92;101723.72;5040249;28;20207;-74
2022/07/18 05:21:10;;;;;;;2.20;1.10;;;;;;;15.23;85.93;101725.19;5044199;28;20207;-74
2022/07/18 05:23:37;;;;;;;2.13;1.30;;;;;;;15.36;87.68;101714.31;5037841;28;20213;-74
2022/07/18 05:26:03;;;;;;;1.87;1.10;;;;;;;15.47;89.00;101718.34;5039065;28;20223;-75
2022/07/18 05:28:29;;;;;;;1.93;1.20;;;;;;;15.58;85.50;101717.16;5042353;28;20603;-74
2022/07/18 05:30:56;;;;;;;1.60;1.00;;;;;;;15.63;83.22;101723.16;5041046;28;20215;-74
2022/07/18 05:33:22;;;;;;;4.50;1.33;;;;;;;15.68;83.29;101718.63;5038109;28;20283;-74
2022/07/18 05:35:48;;;;;;;1.10;1.00;;;;;;;15.74;82.50;101726.31;5042467;28;20207;-74
2022/07/18 05:38:16;;;;;;;2.30;1.13;;;;;;;15.84;80.53;101724.31;5037646;28;20202;-74
2022/07/18 05:40:43;;;;;;;1.50;1.10;;;;;;;15.96;79.48;101720.44;5037174;28;20196;-74
2022/07/18 05:43:09;;;;;;;2.47;1.20;;;;;;;16.08;79.51;101722.69;5039439;28;20199;-75
2022/07/18 05:45:36;;;;;;;2.03;1.00;;;;;;;16.18;77.17;101726.75;5044028;28;20205;-74
2022/07/18 05:48:02;;;;;;;3.70;1.20;;;;;;;16.31;78.93;101723.72;5035711;28;20492;-74
2022/07/18 05:50:29;;;;;;;3.00;1.10;;;;;;;16.37;77.49;101727.00;5042281;28;20844;-74
2022/07/18 05:52:55;;;;;;;4.80;1.40;;;;;;;16.41;76.65;101727.75;5043731;28;20201;-74
2022/07/18 05:55:23;;;;;;;1.97;1.03;;;;;;;16.53;77.34;101721.22;5037801;28;20569;-75
2022/07/18 05:57:50;;;;;;;2.57;1.00;;;;;;;16.68;76.93;101731.25;5038117;28;20229;-74
2022/07/18 06:00:18;;;;;;;1.30;1.20;;;;;;;16.71;72.98;101733.78;5049547;28;20201;-75
2022/07/18 06:02:44;;;;;;;2.60;1.40;;;;;;;16.80;71.82;101724.69;5041564;28;20571;-74
2022/07/18 06:05:11;;;;;;;1.73;0.90;;;;;;;16.90;72.96;101720.84;5046122;28;20198;-75
2022/07/18 06:07:38;;;;;;;1.10;0.80;;;;;;;17.03;71.24;101730.03;5037884;28;20227;-74
2022/07/18 06:10:05;;;;;;;1.23;1.10;;;;;;;17.16;72.80;101721.69;5040901;28;20202;-74
2022/07/18 06:12:33;;;;;;;1.60;1.00;;;;;;;17.26;70.10;101727.50;5037274;28;20538;-74
2022/07/18 06:15:00;;;;;;;0.60;0.60;;;;;;;17.34;69.49;101723.66;5040487;28;20195;-75
2022/07/18 06:17:27;;;;;;;1.10;1.00;;;;;;;17.45;67.66;101719.75;5041780;28;20226;-74
2022/07/18 06:19:54;;;;;;;1.73;1.00;;;;;;;17.59;66.23;101728.03;5064668;22;20340;-73
2022/07/18 06:22:20;;;;;;;1.70;1.17;;;;;;;17.71;65.22;101731.94;5062183;28;20210;-73
2022/07/18 06:24:47;;;;;;;1.33;1.00;;;;;;;17.85;65.23;101718.22;5059625;28;20561;-73
2022/07/18 06:27:13;;;;;;;1.27;1.13;;;;;;;18.01;64.11;101729.06;5060896;28;20195;-73
2022/07/18 06:29:41;;;;;;;2.20;0.70;;;;;;;18.14;64.69;101719.75;5064732;28;20717;-73
2022/07/18 06:32:07;;;;;;;2.17;0.90;;;;;;;18.29;63.59;101734.97;5059374;28;20237;-70
2022/07/18 06:34:34;;;;;;;1.37;1.00;;;;;;;18.41;65.32;101733.56;5060937;28;20202;-71
2022/07/18 06:37:00;;;;;;;1.60;0.90;;;;;;;18.50;60.90;101742.91;5065802;28;20198;-71
2022/07/18 06:39:26;;;;;;;4.33;1.13;;;;;;;18.61;61.54;101743.31;5058778;28;20227;-71
2022/07/18 06:41:52;;;;;;;4.13;0.93;;;;;;;18.74;61.76;101735.72;5051191;28;20198;-71
2022/07/18 06:44:19;;;;;;;1.43;1.00;;;;;;;18.76;59.33;101730.38;5064563;28;20206;-71
2022/07/18 06:46:46;;;;;;;1.73;1.20;;;;;;;18.88;59.01;101728.09;5060431;28;20232;-70
2022/07/18 06:49:13;;;;;;;1.37;0.97;;;;;;;19.05;57.61;101726.47;5056763;28;20219;-71
2022/07/18 06:51:39;;;;;;;1.73;0.90;;;;;;;19.19;58.00;101731.16;5060533;28;20242;-71
2022/07/18 06:54:06;;;;;;;2.37;0.93;;;;;;;19.27;56.07;101729.03;5058258;28;20202;-70
2022/07/18 06:56:32;;;;;;;2.70;0.90;;;;;;;19.40;58.37;101727.56;5064613;28;20203;-71
2022/07/18 06:58:58;;;;;;;1.43;0.90;;;;;;;19.47;56.23;101722.81;5061695;28;20203;-71
2022/07/18 07:01:25;;;;;;;1.63;0.80;;;;;;;19.58;55.70;101720.56;5062046;28;20234;-71
2022/07/18 07:03:53;;;;;;;2.40;0.90;;;;;;;19.73;55.80;101715.47;5061404;28;20202;-71
2022/07/18 07:06:19;;;;;;;1.60;1.20;;;;;;;19.85;56.84;101717.56;5057086;28;20208;-71
2022/07/18 07:08:45;;;;;;;1.60;1.07;;;;;;;19.92;54.29;101718.13;5060053;28;20530;-71
2022/07/18 07:11:12;;;;;;;1.00;0.90;;;;;;;20.07;53.92;101722.69;5056629;28;20260;-71
2022/07/18 07:13:38;;;;;;;3.07;1.10;;;;;;;20.21;56.13;101714.94;5061928;28;20230;-71
2022/07/18 07:16:05;;;;;;;1.10;1.00;;;;;;;20.40;53.92;101714.00;5060828;28;20640;-71
2022/07/18 07:18:31;;;;;;;3.23;1.03;;;;;;;20.51;54.49;101718.75;5060891;28;20658;-71
2022/07/18 07:20:59;;;;;;;1.53;0.80;;;;;;;20.61;51.77;101718.25;5054820;28;20226;-71
2022/07/18 07:23:25;;;;;;;1.77;0.90;;;;;;;20.85;51.96;101717.06;5059790;28;20203;-71
2022/07/18 07:25:52;;;;;;;3.63;0.90;;;;;;;20.92;50.26;101716.66;5061648;28;20205;-71
2022/07/18 07:28:18;;;;;;;1.30;1.10;;;;;;;21.08;49.93;101711.41;5059353;28;20571;-71
2022/07/18 07:30:44;;;;;;;0.60;0.60;;;;;;;21.13;48.00;101713.81;5061283;28;20657;-71
2022/07/18 07:33:11;;;;;;;1.10;0.80;;;;;;;21.29;49.85;101708.53;5058839;28;20292;-71
2022/07/18 07:35:37;;;;;;;1.13;0.80;;;;;;;21.38;49.64;101710.69;5056823;28;20198;-71
2022/07/18 07:38:05;;;;;;;0.93;0.87;;;;;;;21.44;47.32;101706.84;5061573;28;20201;-71
2022/07/18 07:40:31;;;;;;;0.90;0.90;;;;;;;21.59;45.99;101707.84;5057978;28;20223;-71
2022/07/18 07:43:08;;;;;;;1.10;1.00;;;;;;;21.71;47.97;101704.50;5060632;28;20206;-71
2022/07/18 07:45:35;;;;;;;0.90;0.70;;;;;;;21.85;45.75;101711.69;5058213;28;20194;-71
2022/07/18 07:48:01;;;;;;;1.77;1.33;;;;;;;22.08;45.59;101711.22;5058697;28;20683;-71
2022/07/18 07:50:28;;;;;;;1.37;0.93;;;;;;;22.20;45.96;101717.63;5061349;28;20223;-70
2022/07/18 07:52:54;;;;;;;2.50;0.87;;;;;;;22.28;44.73;101722.50;5060688;28;20570;-71
2022/07/18 07:55:22;;;;;;;1.43;1.00;;;;;;;22.35;43.00;101721.22;5062610;28;20242;-71
2022/07/18 07:57:48;;;;;;;1.43;0.80;;;;;;;22.41;44.62;101715.56;5057074;28;20202;-71
2022/07/18 08:00:15;;;;;;;0.70;0.70;;;;;;;22.53;43.78;101721.91;5059534;28;20596;-71
2022/07/18 08:02:53;;;;;;;3.37;1.10;;;;;;;22.65;44.29;101718.53;5056822;28;20202;-71
2022/07/18 08:05:19;;;;;;;1.97;1.00;;;;;;;22.75;44.10;101715.34;5059172;28;20198;-71
2022/07/18 08:07:46;;;;;;;2.77;0.90;;;;;;;22.97;43.45;101714.88;5058161;28;20204;-71
2022/07/18 08:10:12;;;;;;;1.07;0.97;;;;;;;23.04;41.51;101718.88;5053553;28;20211;-70
2022/07/18 08:12:40;;;;;;;0.80;0.80;;;;;;;23.08;42.82;101714.25;5056128;28;20222;-71
2022/07/18 08:15:08;;;;;;;1.23;0.80;;;;;;;23.15;43.54;101716.44;5057258;28;20213;-71
2022/07/18 08:17:34;;;;;;;2.07;1.07;;;;;;;23.23;43.55;101715.97;5058681;28;20210;-71
2022/07/18 08:20:01;;;;;;;1.30;0.73;;;;;;;23.43;41.82;101714.72;5057475;28;20242;-70
2022/07/18 08:22:27;;;;;;;1.10;0.87;;;;;;;23.47;41.00;101716.22;5056889;28;20667;-71
2022/07/18 08:24:54;;;;;;;1.27;0.75;;;;;;;23.47;41.51;101712.72;5062762;28;20222;-70
2022/07/18 08:27:20;;;;;;;1.00;0.70;;;;;;;23.62;42.60;101712.59;5060778;28;20198;-70
2022/07/18 08:29:48;;;;;;;1.77;1.05;;;;;;;23.77;39.14;101715.22;5057773;28;20249;-71
2022/07/18 08:32:14;;;;;;;1.35;0.80;;;;;;;23.89;39.38;101711.78;5056240;28;20222;-71
2022/07/18 08:34:40;;;;;;;0.70;0.70;;;;;;;23.98;40.15;101703.19;5061031;28;20202;-71
2022/07/18 08:37:07;;;;;;;2.15;0.70;;;;;;;23.94;38.20;101701.69;5060940;28;20206;-71
2022/07/18 08:39:33;;;;;;;1.65;0.80;;;;;;;23.94;39.44;101703.47;5060018;28;20214;-71
2022/07/18 08:42:01;;;;;;;1.33;0.90;;;;;;;24.03;39.22;101696.69;5059904;28;20488;-71
2022/07/18 08:44:29;;;;;;;0.77;0.77;;;;;;;24.08;37.60;101708.78;5060383;28;20213;-71
2022/07/18 08:46:58;;;;;;;1.10;0.70;;;;;;;24.17;38.70;101704.66;5057588;28;20210;-71
2022/07/18 08:49:24;;;;;;;0.85;0.80;;;;;;;24.21;37.97;101695.47;5065876;28;20226;-70
2022/07/18 08:51:52;;;;;;;1.52;0.80;;;;;;;24.15;37.36;101701.19;5058575;28;20211;-71
2022/07/18 08:54:18;;;;;;;1.15;0.80;;;;;;;24.32;39.39;101697.41;5056072;28;20199;-71
2022/07/18 08:56:45;;;;;;;1.38;0.95;;;;;;;24.39;37.96;101698.72;5063990;28;20593;-71
2022/07/18 08:59:11;;;;;;;1.67;0.75;;;;;;;24.50;38.03;101704.19;5060988;28;20219;-70
2022/07/18 09:01:37;;;;;;;0.73;0.65;;;;;;;24.48;37.71;101698.06;5063995;28;20198;-71
2022/07/18 09:04:19;;;;;;;1.48;0.60;;;;;;;24.44;35.88;101703.75;5062925;28;20207;-71
2022/07/18 09:06:48;;;;;;;0.70;0.70;;;;;;;24.58;39.14;101698.34;5057415;28;20199;-70
2022/07/18 09:09:17;;;;;;;0.93;0.80;;;;;;;24.71;37.74;101695.69;5060839;28;20222;-71
2022/07/18 09:11:53;;;;;;;1.17;0.80;;;;;;;24.84;36.31;101693.88;5062502;28;20218;-71
2022/07/18 09:14:35;;;;;;;0.77;0.70;;;;;;;24.82;36.60;101690.47;5063725;28;20552;-71
2022/07/18 09:17:03;;;;;;;1.58;0.63;;;;;;;24.92;39.18;101675.53;5062706;28;20202;-70
2022/07/18 09:19:31;;;;;;;1.80;0.90;;;;;;;24.90;35.04;101688.09;5062138;28;20218;-70
2022/07/18 09:22:15;;;;;;;1.30;0.90;;;;;;;24.94;36.19;101681.63;5062604;28;20195;-70
2022/07/18 09:24:55;;;;;;;1.13;0.75;;;;;;;25.10;36.43;101675.16;5061213;28;20578;-70
2022/07/18 09:27:32;;;;;;;1.70;0.80;;;;;;;25.05;35.40;101675.53;5059199;28;20558;-70
2022/07/18 09:30:28;;;;;;;1.42;0.80;;;;;;;25.25;36.83;101681.28;5063051;28;20250;-71
2022/07/18 09:33:05;;;;;;;0.70;0.70;;;;;;;25.31;34.55;101676.34;5058613;28;20453;-70
2022/07/18 09:35:35;;;;;;;1.27;0.80;;;;;;;25.41;35.10;101678.34;5065552;28;20205;-70
2022/07/18 09:38:03;;;;;;;1.02;0.80;;;;;;;25.44;36.12;101672.81;5061344;28;20210;-70
2022/07/18 09:40:33;;;;;;;3.05;0.90;;;;;;;25.55;33.97;101678.19;5060358;28;20516;-70
2022/07/18 09:43:01;;;;;;;2.47;1.02;;;;;;;25.71;33.68;101669.91;5056876;28;20666;-70
2022/07/18 09:45:30;;;;;;;1.20;0.80;;;;;;;25.71;33.94;101672.56;5056879;28;20199;-70
2022/07/18 09:47:58;;;;;;;1.58;1.00;;;;;;;25.90;34.98;101674.75;5057754;28;20666;-70
2022/07/18 09:50:28;;;;;;;1.30;0.88;;;;;;;25.94;33.38;101678.06;5057397;28;20703;-71
2022/07/18 09:53:04;;;;;;;1.33;1.00;;;;;;;26.11;32.93;101671.47;5058770;28;20222;-71
2022/07/18 09:55:30;;;;;;;1.30;1.00;;;;;;;26.14;32.01;101669.41;5063658;28;20678;-70
2022/07/18 09:57:59;;;;;;;1.15;0.90;;;;;;;26.25;34.32;101661.41;5060834;28;20195;-71
2022/07/18 10:00:26;;;;;;;1.00;0.80;;;;;;;26.35;35.21;101655.34;5062907;28;20628;-70
2022/07/18 10:02:52;;;;;;;1.55;0.90;;;;;;;26.33;32.53;101660.84;5064029;28;20535;-71
2022/07/18 10:05:19;;;;;;;1.02;0.95;;;;;;;26.49;33.72;101670.34;5055207;28;20221;-70
2022/07/18 10:07:46;;;;;;;2.05;1.02;;;;;;;26.46;33.21;101663.41;5057300;28;20191;-71
2022/07/18 10:10:15;;;;;;;0.93;0.80;;;;;;;26.43;34.56;101659.16;5056269;28;20275;-71
2022/07/18 10:12:42;;;;;;;1.90;1.10;;;;;;;26.59;34.86;101664.16;5062011;28;20219;-71
2022/07/18 10:15:10;;;;;;;1.33;0.98;;;;;;;26.62;34.62;101665.78;5060609;28;20206;-71
2022/07/18 10:17:36;;;;;;;1.05;0.95;;;;;;;26.59;34.21;101666.81;5057883;28;20199;-71
2022/07/18 10:20:05;;;;;;;0.75;0.75;;;;;;;26.67;32.37;101668.97;5058801;28;20280;-71
2022/07/18 10:22:36;;;;;;;1.73;1.00;;;;;;;26.74;33.36;101666.66;5061370;28;20198;-70
2022/07/18 10:25:05;;;;;;;2.10;1.13;;;;;;;26.71;31.79;101675.75;5056829;28;20280;-71
2022/07/18 10:27:50;;;;;;;1.17;1.08;;;;;;;26.57;31.26;101670.59;5058877;28;20668;-71
2022/07/18 10:30:19;;;;;;;1.20;0.80;;;;;;;26.71;34.00;101665.06;5061469;28;20228;-71
2022/07/18 10:32:46;;;;;;;0.98;0.88;;;;;;;26.89;32.55;101668.09;5059039;28;20604;-71
2022/07/18 10:35:16;;;;;;;1.48;1.00;;;;;;;26.92;31.80;101667.03;5057915;28;20206;-71
2022/07/18 10:37:43;;;;;;;1.95;1.15;;;;;;;26.99;32.76;101674.44;5060209;28;20678;-70
2022/07/18 10:40:27;;;;;;;0.98;0.88;;;;;;;27.09;32.52;101660.31;5061164;28;20480;-71
2022/07/18 10:43:30;;;;;;;2.70;1.20;;;;;;;27.26;30.85;101664.31;5055429;28;20256;-70
2022/07/18 10:45:59;;;;;;;1.40;1.30;;;;;;;27.06;31.03;101664.09;5060101;28;20582;-71
2022/07/18 10:48:56;;;;;;;2.05;1.27;;;;;;;27.03;31.94;101653.63;5060708;28;20199;-71
2022/07/18 10:51:33;;;;;;;1.00;0.90;;;;;;;27.13;30.47;101656.44;5035332;28;20207;-70
2022/07/18 10:54:11;;;;;;;2.65;1.20;;;;;;;27.02;30.92;101651.94;5049408;28;20223;-70
2022/07/18 10:57:07;;;;;;;0.98;0.88;;;;;;;27.13;32.29;101653.75;5057327;28;20202;-70
2022/07/18 10:59:34;;;;;;;1.65;1.02;;;;;;;27.28;33.35;101647.22;5054557;28;20719;-70
2022/07/18 11:02:05;;;;;;;1.08;0.98;;;;;;;27.38;32.45;101648.13;5063062;28;20687;-70
2022/07/18 11:04:35;;;;;;;2.15;0.95;;;;;;;27.47;32.97;101646.53;5061756;28;20203;-70
2022/07/18 11:07:10;;;;;;;2.38;0.80;;;;;;;27.47;32.32;101637.66;5064801;28;20217;-71
2022/07/18 11:09:38;;;;;;;1.60;1.00;;;;;;;27.53;32.71;101637.16;5060333;28;20233;-71
2022/07/18 11:12:21;;;;;;;2.45;1.10;;;;;;;27.49;30.95;101639.25;5055767;28;20214;-70
2022/07/18 11:15:09;;;;;;;1.48;1.10;;;;;;;27.58;31.15;101633.13;5057808;28;20225;-70
2022/07/18 11:17:58;;;;;;;1.88;1.25;;;;;;;27.77;31.40;101637.81;5059388;28;20198;-70
2022/07/18 11:20:27;;;;;;;1.30;1.20;;;;;;;27.96;31.61;101633.59;5054681;28;20548;-70
2022/07/18 11:22:53;;;;;;;1.60;1.08;;;;;;;27.96;32.35;101622.88;5061943;28;20576;-71
2022/07/18 11:25:20;;;;;;;1.98;1.00;;;;;;;28.01;32.56;101617.16;5059718;28;20210;-70
2022/07/18 11:27:46;;;;;;;1.45;1.10;;;;;;;28.13;33.18;101606.22;5054887;28;20206;-71
2022/07/18 11:30:17;;;;;;;1.40;1.00;;;;;;;28.27;33.17;101614.94;5059973;28;20607;-71